Latest Weather Observations for Edenhope

IDV60801

Issued at 11:35 pm EDT Wednesday 26 November 2014 (issued every 30 minutes, with the page automatically refreshed every 10 minutes)

About weather observations | Map of weather stations | Latest weather observations for VIC | Other Formats
Station Details ID: 079099 Name: EDENHOPE AIRPORT Lat: -37.02 Lon: 141.27 Height: 155.0 m
Data from the previous 72 hours. | See also: Recent months at Edenhope
Date/Time
EDT
Temp
°C
App
Temp
°C
Dew
Point
Rel
Hum
%
Delta-T
°C
Wind Press
QNH
hPa
Press
MSL
hPa
Rain
since 9 am
mm
Dir
 
Spd
km/h
Gust
km/h
Spd
kts
Gust
kts
26/11:30pm 11.0 8.7 7.5 79 1.7 SSE 9 11 5 6 - - 0.0
26/11:00pm 11.7 9.4 7.6 76 2.0 S 9 15 5 8 - - 0.0
26/10:30pm 12.4 9.8 7.7 73 2.3 S 11 15 6 8 - - 0.0
26/10:00pm 13.2 9.9 7.9 70 2.6 S 15 22 8 12 - - 0.0
26/09:30pm 14.3 11.1 8.5 68 2.9 S 15 20 8 11 - - 0.0
26/09:00pm 15.6 11.5 8.8 64 3.5 SSE 20 28 11 15 - - 0.0
26/08:30pm 16.3 12.6 9.3 63 3.7 SSE 19 32 10 17 - - 0.0
26/08:00pm 16.9 13.7 9.8 63 3.8 S 17 30 9 16 - - 0.0
26/07:30pm 16.8 13.4 10.6 67 3.3 S 19 26 10 14 - - 0.0
26/07:00pm 17.9 14.4 11.0 64 3.8 S 20 30 11 16 - - 0.0
26/06:30pm 17.6 14.5 11.6 68 3.3 S 19 26 10 14 - - 0.0
26/06:00pm 18.4 15.5 11.0 62 4.0 S 17 26 9 14 - - 0.0
26/05:30pm 18.3 16.0 11.6 65 3.7 S 15 26 8 14 - - 0.0
26/05:00pm 18.8 16.5 10.4 58 4.5 SSW 13 19 7 10 - - 0.0
26/04:30pm 19.4 17.0 9.9 54 5.1 S 13 20 7 11 - - 0.0
26/04:00pm 19.8 16.9 9.7 52 5.4 SW 15 19 8 10 - - 0.0
26/03:30pm 19.4 16.4 9.3 52 5.4 SW 15 22 8 12 - - 0.0
26/03:00pm 20.0 16.6 9.0 49 5.8 SSW 17 24 9 13 - - 0.0
26/02:30pm 20.9 18.5 10.1 50 5.9 SW 13 19 7 10 - - 0.0
26/02:00pm 18.7 15.0 9.5 55 4.9 SW 19 26 10 14 - - 0.0
26/01:30pm 20.1 18.2 10.5 54 5.2 SSW 11 22 6 12 - - 0.0
26/01:00pm 18.2 15.6 9.3 56 4.7 SW 13 19 7 10 - - 0.0
26/12:30pm 17.7 15.0 8.8 56 4.6 SSW 13 17 7 9 - - 0.0
26/12:00pm 17.3 14.2 9.0 58 4.3 SW 15 22 8 12 - - 0.0
26/11:30am 16.8 14.6 9.2 61 4.0 WSW 11 17 6 9 - - 0.0
26/11:00am 16.4 14.1 8.9 61 3.9 SW 11 17 6 9 - - 0.0
26/10:30am 15.0 12.6 8.7 66 3.2 SW 11 20 6 11 - - 0.0
26/10:00am 14.3 11.9 8.7 69 2.9 SW 11 22 6 12 - - 0.0
26/09:30am 13.6 11.4 9.5 76 2.1 SW 11 17 6 9 - - 0.0
26/09:00am 13.2 11.7 9.1 76 2.1 SW 7 9 4 5 - - 0.0
26/08:30am 12.3 10.9 9.0 80 1.7 WSW 6 7 3 4 - - 0.0
26/08:00am 11.0 10.7 8.8 86 1.1 CALM 0 0 0 0 - - 0.0
26/07:30am 9.8 9.4 8.2 90 0.8 CALM 0 0 0 0 - - 0.0
26/07:00am 9.1 8.3 8.0 93 0.5 NNW 2 4 1 2 - - 0.0
26/06:30am 8.7 7.5 7.9 95 0.4 W 4 6 2 3 - - 0.0
26/06:00am 7.9 6.9 7.5 97 0.2 SW 2 4 1 2 - - 0.0
26/05:30am 7.0 6.2 6.6 97 0.2 CALM 0 0 0 0 - - 0.0
26/05:00am 6.2 5.3 5.9 98 0.1 CALM 0 0 0 0 - - 0.0
26/04:30am 6.0 5.0 5.6 97 0.2 CALM 0 0 0 0 - - 0.0
26/04:00am 6.2 5.1 5.3 94 0.4 CALM 0 0 0 0 - - 0.0
26/03:30am 6.4 5.4 5.4 93 0.4 CALM 0 0 0 0 - - 0.0
26/03:00am 7.2 6.2 5.7 90 0.7 CALM 0 0 0 0 - - 0.0
26/02:30am 7.5 6.5 5.5 87 0.9 CALM 0 0 0 0 - - 0.0
26/02:00am 8.5 7.2 6.1 85 1.1 SSW 2 4 1 2 - - 0.0
26/01:30am 8.0 6.6 5.6 85 1.1 SW 2 4 1 2 - - 0.0
26/01:00am 8.7 7.7 5.8 82 1.3 CALM 0 0 0 0 - - 0.0
26/12:30am 9.9 8.2 5.9 76 1.9 SSW 4 7 2 4 - - 0.0
26/12:00am 10.0 8.3 5.8 75 1.9 SSW 4 6 2 3 - - 0.0
 
Date/Time
EDT
Temp
°C
App
Temp
°C
Dew
Point
Rel
Hum
%
Delta-T
°C
Wind Press
QNH
hPa
Press
MSL
hPa
Rain
since 9 am
mm
Dir
 
Spd
km/h
Gust
km/h
Spd
kts
Gust
kts
25/11:30pm 10.4 8.3 5.6 72 2.2 SSW 6 9 3 5 - - 0.0
25/11:00pm 10.8 8.7 5.6 70 2.4 SSW 6 9 3 5 - - 0.0
25/10:30pm 11.4 9.2 5.5 67 2.7 SSW 6 7 3 4 - - 0.0
25/10:00pm 11.4 9.2 5.3 66 2.8 SW 6 7 3 4 - - 0.0
25/09:30pm 12.5 10.1 5.4 62 3.3 SSW 7 11 4 6 - - 0.0
25/09:00pm 13.4 10.2 5.3 58 3.8 SSW 11 15 6 8 - - 0.0
25/08:30pm 14.2 11.0 5.3 55 4.2 SSW 11 15 6 8 - - 0.0
25/08:00pm 15.4 10.6 4.8 49 5.0 WSW 19 28 10 15 - - 0.0
25/07:30pm 16.6 12.2 4.9 46 5.6 WSW 17 24 9 13 - - 0.0
25/07:00pm 17.6 12.7 4.9 43 6.1 WSW 20 30 11 16 - - 0.0
25/06:30pm 18.2 13.1 4.0 39 6.8 W 20 24 11 13 - - 0.0
25/06:00pm 18.8 13.9 5.3 41 6.6 WSW 20 32 11 17 - - 0.0
25/05:30pm 19.6 13.8 4.5 37 7.3 WSW 24 39 13 21 - - 0.0
25/05:00pm 20.0 15.0 4.5 36 7.5 SW 20 37 11 20 - - 0.0
25/04:30pm 21.2 16.5 5.1 35 8.0 SW 19 30 10 16 - - 0.0
25/04:00pm 19.4 14.2 5.5 40 6.9 W 22 37 12 20 - - 0.0
25/03:30pm 20.6 15.6 6.5 40 7.2 WSW 22 39 12 21 - - 0.0
25/03:00pm 20.7 16.1 6.6 40 7.2 WSW 20 30 11 16 - - 0.0
25/02:30pm 20.9 14.9 5.3 36 7.8 W 26 39 14 21 - - 0.0
25/02:00pm 19.1 13.5 5.2 40 6.8 W 24 35 13 19 - - 0.0
25/01:30pm 19.7 14.9 5.4 39 7.1 WSW 20 41 11 22 - - 0.0
25/01:00pm 18.1 12.2 3.9 39 6.7 W 24 35 13 19 - - 0.0
25/12:30pm 18.7 13.4 5.2 41 6.6 SW 22 30 12 16 - - 0.0
25/12:00pm 17.2 12.1 4.2 42 6.2 W 20 33 11 18 - - 0.0
25/11:30am 16.8 12.0 5.7 48 5.4 WSW 20 32 11 17 - - 0.0
25/11:00am 16.6 11.9 5.9 49 5.2 WSW 20 30 11 16 - - 0.0
25/10:30am 15.9 11.7 7.4 57 4.3 WSW 19 28 10 15 - - 0.0
25/10:00am 15.7 11.3 6.7 55 4.4 WSW 19 26 10 14 - - 0.0
25/09:30am 14.4 10.0 7.5 63 3.4 WSW 20 30 11 16 - - 0.0
25/09:00am 13.7 10.9 8.7 72 2.5 WSW 13 20 7 11 - - 1.4
25/08:30am 12.7 10.9 9.3 80 1.7 W 9 13 5 7 - - 1.4
25/08:00am 11.1 9.7 9.0 87 1.1 W 6 7 3 4 - - 1.4
25/07:30am 9.3 8.1 8.1 92 0.6 WNW 4 7 2 4 - - 1.4
25/07:00am 7.5 6.0 6.8 95 0.3 NNW 4 4 2 2 - - 1.4
25/06:30am 7.4 5.9 6.7 95 0.3 NW 4 6 2 3 - - 1.4
25/06:00am 7.2 5.6 6.3 94 0.4 NNW 4 6 2 3 - - 1.4
25/05:30am 7.6 5.7 6.7 94 0.4 NW 6 6 3 3 - - 1.4
25/05:00am 7.4 5.8 6.5 94 0.4 NW 4 7 2 4 - - 1.4
25/04:30am 7.8 6.3 6.9 94 0.4 NW 4 7 2 4 - - 1.4
25/04:00am 7.5 5.9 6.4 93 0.5 WNW 4 6 2 3 - - 1.4
25/03:30am 7.4 5.8 6.2 92 0.5 NNW 4 7 2 4 - - 1.4
25/03:00am 7.5 5.4 6.0 90 0.7 NW 6 7 3 4 - - 1.4
25/02:30am 8.1 6.1 6.4 89 0.8 WNW 6 7 3 4 - - 1.4
25/02:00am 8.6 6.6 6.4 86 1.0 WNW 6 7 3 4 - - 1.4
25/01:30am 8.6 6.4 6.4 86 1.0 W 7 9 4 5 - - 1.4
25/01:00am 9.0 7.0 6.3 83 1.3 W 6 9 3 5 - - 1.4
25/12:30am 8.9 6.6 5.8 81 1.4 W 7 11 4 6 - - 1.4
25/12:00am 9.3 7.0 5.7 78 1.7 W 7 9 4 5 - - 1.4
 
Date/Time
EDT
Temp
°C
App
Temp
°C
Dew
Point
Rel
Hum
%
Delta-T
°C
Wind Press
QNH
hPa
Press
MSL
hPa
Rain
since 9 am
mm
Dir
 
Spd
km/h
Gust
km/h
Spd
kts
Gust
kts
24/11:30pm 9.6 7.5 5.6 76 1.8 W 6 7 3 4 - - 1.4
24/11:00pm 10.2 7.5 5.6 73 2.1 W 9 13 5 7 - - 1.4
24/10:30pm 10.9 8.3 5.9 71 2.3 WSW 9 11 5 6 - - 1.4
24/10:00pm 11.4 8.7 5.7 68 2.7 WSW 9 13 5 7 - - 1.4
24/09:30pm 12.1 8.7 5.7 65 3.0 WSW 13 19 7 10 - - 1.4
24/09:00pm 12.8 8.7 6.2 64 3.2 WSW 17 24 9 13 - - 1.4
24/08:30pm 13.7 8.6 5.8 59 3.8 SW 22 33 12 18 - - 1.4
24/08:00pm 14.7 8.8 6.0 56 4.2 WSW 26 41 14 22 - - 1.4
24/07:30pm 15.6 9.5 6.6 55 4.4 WSW 28 43 15 23 - - 1.4
24/07:26pm 15.5 8.9 6.2 54 4.5 WSW 30 48 16 26 - - 1.4
24/07:00pm 16.2 10.0 6.3 52 4.9 WSW 28 39 15 21 - - 1.4
24/06:30pm 17.4 10.9 6.6 49 5.4 WSW 30 44 16 24 - - 1.4
24/06:04pm 18.4 11.7 5.6 43 6.3 WSW 30 48 16 26 - - 1.4
24/06:00pm 17.2 9.6 3.8 41 6.3 WSW 33 48 18 26 - - 1.4
24/05:30pm 18.1 10.7 5.0 42 6.4 WSW 33 46 18 25 - - 1.4
24/05:05pm 19.1 12.8 7.5 47 5.9 WSW 30 48 16 26 - - 1.4
24/05:00pm 19.0 13.6 8.1 49 5.7 SW 26 44 14 24 - - 1.4
24/04:35pm 19.3 13.7 8.9 51 5.5 WSW 28 48 15 26 - - 1.4
24/04:30pm 18.4 12.7 8.4 52 5.2 SW 28 41 15 22 - - 1.4
24/04:11pm 19.0 13.1 8.9 52 5.3 SW 30 48 16 26 - - 1.4
24/04:00pm 19.4 13.8 8.7 50 5.6 WSW 28 44 15 24 - - 1.4
24/03:30pm 17.0 13.7 11.5 70 3.0 WSW 20 33 11 18 - - 1.4
24/03:00pm 14.4 9.1 10.0 75 2.3 SW 28 43 15 23 - - 1.4
24/02:30pm 15.8 10.5 12.4 80 1.9 SW 32 50 17 27 - - 1.4
24/02:23pm 16.7 11.4 12.5 76 2.3 SW 32 50 17 27 - - 1.4
24/02:00pm 19.8 16.0 13.5 67 3.6 SW 26 43 14 23 - - 1.4
24/01:30pm 20.1 17.4 11.6 58 4.7 WSW 17 30 9 16 - - 1.4
24/01:00pm 20.1 17.4 11.6 58 4.7 SW 17 24 9 13 - - 1.4
24/12:30pm 19.8 18.4 12.1 61 4.3 SW 11 19 6 10 - - 1.2
24/12:00pm 18.6 16.9 12.6 68 3.4 SW 13 20 7 11 - - 1.2
24/11:30am 17.6 15.2 12.7 73 2.7 SSW 17 26 9 14 - - 1.2
24/11:00am 16.5 15.3 12.7 78 2.1 SSW 11 19 6 10 - - 1.2
24/10:30am 15.2 14.9 13.4 89 1.0 SSW 7 11 4 6 - - 1.2
24/10:00am 14.3 14.3 13.5 95 0.4 S 6 7 3 4 - - 1.2
24/09:30am 14.1 13.9 13.5 96 0.3 SSW 7 13 4 7 - - 0.6
24/09:00am 13.8 12.7 13.2 96 0.3 SW 11 19 6 10 - - 5.8
24/08:30am 14.2 13.6 13.6 96 0.3 S 9 15 5 8 - - 3.8
24/08:00am 13.4 13.1 12.8 96 0.3 SE 6 7 3 4 - - 3.8
24/07:30am 13.2 12.7 12.7 97 0.3 SSW 7 15 4 8 - - 3.6
24/07:00am 13.3 12.4 12.7 96 0.3 SSW 9 19 5 10 - - 1.6
24/06:30am 13.4 13.0 12.5 94 0.5 NNE 6 7 3 4 - - 0.6
24/06:00am 13.5 12.9 12.2 92 0.7 NW 7 15 4 8 - - 0.4
24/05:30am 14.0 13.3 11.9 87 1.1 SSE 7 11 4 6 - - 0.2
24/05:00am 13.7 12.4 11.2 85 1.3 SSE 9 17 5 9 - - 0.0
24/04:30am 14.3 13.3 10.3 77 2.1 S 6 9 3 5 - - 0.0
24/04:00am 14.6 13.6 10.4 76 2.2 SE 6 9 3 5 - - 0.0
24/03:30am 14.7 13.2 10.5 76 2.2 E 9 13 5 7 - - 0.0
24/03:00am 14.7 12.9 10.7 77 2.1 E 11 15 6 8 - - 0.0
24/02:30am 14.5 13.0 10.7 78 2.0 E 9 15 5 8 - - 0.0
24/02:00am 14.5 12.7 10.9 79 1.9 SE 11 15 6 8 - - 0.0
24/01:30am 14.8 13.3 10.6 76 2.2 SSE 9 13 5 7 - - 0.0
24/01:00am 14.7 13.6 10.5 76 2.2 S 7 11 4 6 - - 0.0
24/12:30am 15.6 14.1 10.6 72 2.7 SSE 9 11 5 6 - - 0.0
24/12:00am 15.9 14.9 10.9 72 2.7 S 7 9 4 5 - - 0.0

Other Formats:

Comma delimited format used in spreadsheet applications
http://www.bom.gov.au/fwo/IDV60801/IDV60801.95832.axf

JavaScript Object Notation format (JSON) in row-major order
http://www.bom.gov.au/fwo/IDV60801/IDV60801.95832.json